sensor_id;sensor_type;location;lat;lon;timestamp;pressure;altitude;pressure_sealevel;temperature;humidity
498;BME280;39559;48.630;9.162;2023-01-31T00:01:07;98386.63;;;0.54;100.00
498;BME280;39559;48.630;9.162;2023-01-31T00:03:33;98379.78;;;0.50;100.00
498;BME280;39559;48.630;9.162;2023-01-31T00:06:09;98373.69;;;0.42;100.00
498;BME280;39559;48.630;9.162;2023-01-31T00:08:34;98376.16;;;0.34;100.00
498;BME280;39559;48.630;9.162;2023-01-31T00:11:00;98374.38;;;0.27;100.00
498;BME280;39559;48.630;9.162;2023-01-31T00:13:28;98372.63;;;0.23;100.00
498;BME280;39559;48.630;9.162;2023-01-31T00:17:41;98363.16;;;0.14;100.00
498;BME280;39559;48.630;9.162;2023-01-31T00:20:07;98363.94;;;0.08;100.00
498;BME280;39559;48.630;9.162;2023-01-31T00:22:33;98363.81;;;-0.01;100.00
498;BME280;39559;48.630;9.162;2023-01-31T00:24:58;98364.69;;;0.01;100.00
498;BME280;39559;48.630;9.162;2023-01-31T00:27:24;98367.19;;;-0.04;100.00
498;BME280;39559;48.630;9.162;2023-01-31T00:29:49;98358.72;;;0.01;100.00
498;BME280;39559;48.630;9.162;2023-01-31T00:32:15;98360.56;;;0.12;100.00
498;BME280;39559;48.630;9.162;2023-01-31T00:34:40;98349.44;;;0.09;100.00
498;BME280;39559;48.630;9.162;2023-01-31T00:37:06;98354.56;;;0.09;100.00
498;BME280;39559;48.630;9.162;2023-01-31T00:41:42;98353.78;;;0.13;100.00
498;BME280;39559;48.630;9.162;2023-01-31T00:44:08;98351.22;;;0.13;100.00
498;BME280;39559;48.630;9.162;2023-01-31T00:46:33;98352.97;;;0.17;100.00
498;BME280;39559;48.630;9.162;2023-01-31T00:48:59;98342.72;;;0.14;100.00
498;BME280;39559;48.630;9.162;2023-01-31T00:51:26;98351.13;;;0.07;100.00
498;BME280;39559;48.630;9.162;2023-01-31T00:53:51;98350.31;;;0.11;100.00
498;BME280;39559;48.630;9.162;2023-01-31T00:56:22;98345.22;;;0.11;100.00
498;BME280;39559;48.630;9.162;2023-01-31T00:58:48;98342.75;;;0.17;100.00
498;BME280;39559;48.630;9.162;2023-01-31T01:01:19;98340.28;;;0.23;100.00
498;BME280;39559;48.630;9.162;2023-01-31T01:05:44;98348.66;;;0.11;100.00
498;BME280;39559;48.630;9.162;2023-01-31T01:08:09;98349.50;;;0.12;100.00
498;BME280;39559;48.630;9.162;2023-01-31T01:10:35;98348.56;;;0.05;100.00
498;BME280;39559;48.630;9.162;2023-01-31T01:13:02;98349.16;;;-0.14;100.00
498;BME280;39559;48.630;9.162;2023-01-31T01:15:27;98356.06;;;-0.09;100.00
498;BME280;39559;48.630;9.162;2023-01-31T01:17:54;98348.28;;;-0.15;100.00
498;BME280;39559;48.630;9.162;2023-01-31T01:20:19;98354.31;;;-0.68;100.00
498;BME280;39559;48.630;9.162;2023-01-31T01:22:45;98345.06;;;-0.61;100.00
498;BME280;39559;48.630;9.162;2023-01-31T01:25:10;98351.91;;;-0.59;100.00
498;BME280;39559;48.630;9.162;2023-01-31T01:29:48;98348.31;;;-0.70;100.00
498;BME280;39559;48.630;9.162;2023-01-31T01:32:14;98359.97;;;-0.87;100.00
498;BME280;39559;48.630;9.162;2023-01-31T01:34:39;98356.91;;;-1.15;100.00
498;BME280;39559;48.630;9.162;2023-01-31T01:37:07;98360.69;;;-1.42;100.00
498;BME280;39559;48.630;9.162;2023-01-31T01:39:47;98362.06;;;-1.99;100.00
498;BME280;39559;48.630;9.162;2023-01-31T01:42:15;98367.81;;;-1.66;100.00
498;BME280;39559;48.630;9.162;2023-01-31T01:44:48;98365.09;;;-1.76;100.00
498;BME280;39559;48.630;9.162;2023-01-31T01:49:54;98366.66;;;-1.82;100.00
498;BME280;39559;48.630;9.162;2023-01-31T01:53:49;98378.19;;;-2.00;100.00
498;BME280;39559;48.630;9.162;2023-01-31T01:56:22;98378.22;;;-1.97;100.00
498;BME280;39559;48.630;9.162;2023-01-31T01:58:56;98374.94;;;-1.92;100.00
498;BME280;39559;48.630;9.162;2023-01-31T02:01:25;98377.19;;;-1.65;100.00
498;BME280;39559;48.630;9.162;2023-01-31T02:03:52;98376.94;;;-1.33;100.00
498;BME280;39559;48.630;9.162;2023-01-31T02:06:19;98372.25;;;-1.12;100.00
498;BME280;39559;48.630;9.162;2023-01-31T02:08:45;98380.34;;;-0.86;100.00
498;BME280;39559;48.630;9.162;2023-01-31T02:11:26;98391.00;;;-0.60;100.00
498;BME280;39559;48.630;9.162;2023-01-31T02:14:01;98375.16;;;-0.39;100.00
498;BME280;39559;48.630;9.162;2023-01-31T02:17:48;98383.69;;;-0.40;100.00
498;BME280;39559;48.630;9.162;2023-01-31T02:20:37;98383.06;;;-0.23;100.00
498;BME280;39559;48.630;9.162;2023-01-31T02:24:11;98384.50;;;-0.41;100.00
498;BME280;39559;48.630;9.162;2023-01-31T02:34:15;98381.78;;;-0.51;100.00
498;BME280;39559;48.630;9.162;2023-01-31T02:42:04;98375.91;;;-0.46;100.00
498;BME280;39559;48.630;9.162;2023-01-31T02:44:38;98379.41;;;-0.39;100.00
498;BME280;39559;48.630;9.162;2023-01-31T02:50:28;98387.16;;;-0.34;100.00
498;BME280;39559;48.630;9.162;2023-01-31T02:53:18;98388.13;;;-0.26;100.00
498;BME280;39559;48.630;9.162;2023-01-31T02:55:52;98377.13;;;-0.21;100.00
498;BME280;39559;48.630;9.162;2023-01-31T02:58:41;98379.53;;;-0.31;100.00
498;BME280;39559;48.630;9.162;2023-01-31T03:01:16;98379.44;;;-0.37;100.00
498;BME280;39559;48.630;9.162;2023-01-31T03:08:33;98393.31;;;-0.22;100.00
498;BME280;39559;48.630;9.162;2023-01-31T03:11:03;98395.00;;;-0.21;100.00
498;BME280;39559;48.630;9.162;2023-01-31T03:13:34;98400.06;;;-0.25;100.00
498;BME280;39559;48.630;9.162;2023-01-31T03:16:27;98394.13;;;-0.23;100.00
498;BME280;39559;48.630;9.162;2023-01-31T03:19:22;98388.88;;;-0.32;100.00
498;BME280;39559;48.630;9.162;2023-01-31T03:21:58;98393.72;;;-0.50;100.00
498;BME280;39559;48.630;9.162;2023-01-31T03:24:25;98386.88;;;-0.51;100.00
498;BME280;39559;48.630;9.162;2023-01-31T03:26:56;98396.25;;;-0.50;100.00
498;BME280;39559;48.630;9.162;2023-01-31T03:30:03;98390.13;;;-0.60;100.00
498;BME280;39559;48.630;9.162;2023-01-31T03:32:35;98389.38;;;-0.56;100.00
498;BME280;39559;48.630;9.162;2023-01-31T03:35:04;98403.25;;;-0.39;100.00
498;BME280;39559;48.630;9.162;2023-01-31T03:37:43;98407.56;;;-0.34;100.00
498;BME280;39559;48.630;9.162;2023-01-31T03:40:18;98409.88;;;-0.50;100.00
498;BME280;39559;48.630;9.162;2023-01-31T03:43:34;98415.78;;;-0.52;100.00
498;BME280;39559;48.630;9.162;2023-01-31T03:46:36;98422.75;;;-0.44;100.00
498;BME280;39559;48.630;9.162;2023-01-31T03:49:05;98417.13;;;-0.74;100.00
498;BME280;39559;48.630;9.162;2023-01-31T03:54:01;98410.94;;;-0.87;100.00
498;BME280;39559;48.630;9.162;2023-01-31T03:56:57;98411.25;;;-0.70;100.00
498;BME280;39559;48.630;9.162;2023-01-31T03:59:31;98409.56;;;-0.68;100.00
498;BME280;39559;48.630;9.162;2023-01-31T04:02:00;98413.00;;;-0.66;100.00
498;BME280;39559;48.630;9.162;2023-01-31T04:07:01;98421.81;;;-0.98;100.00
498;BME280;39559;48.630;9.162;2023-01-31T04:09:28;98420.41;;;-0.82;100.00
498;BME280;39559;48.630;9.162;2023-01-31T04:11:53;98424.59;;;-0.84;100.00
498;BME280;39559;48.630;9.162;2023-01-31T04:14:23;98429.28;;;-1.07;100.00
498;BME280;39559;48.630;9.162;2023-01-31T04:17:56;98426.50;;;-1.60;100.00
498;BME280;39559;48.630;9.162;2023-01-31T04:20:22;98423.31;;;-1.51;100.00
498;BME280;39559;48.630;9.162;2023-01-31T04:22:47;98434.47;;;-1.45;100.00
498;BME280;39559;48.630;9.162;2023-01-31T04:25:13;98428.53;;;-1.45;100.00
498;BME280;39559;48.630;9.162;2023-01-31T04:27:38;98433.19;;;-1.67;100.00
498;BME280;39559;48.630;9.162;2023-01-31T04:30:05;98435.72;;;-1.67;100.00
498;BME280;39559;48.630;9.162;2023-01-31T04:32:31;98431.81;;;-1.90;100.00
498;BME280;39559;48.630;9.162;2023-01-31T04:34:57;98433.28;;;-2.00;100.00
498;BME280;39559;48.630;9.162;2023-01-31T04:37:25;98432.59;;;-1.95;100.00
498;BME280;39559;48.630;9.162;2023-01-31T04:41:58;98426.03;;;-1.83;100.00
498;BME280;39559;48.630;9.162;2023-01-31T04:44:24;98437.13;;;-1.81;100.00
498;BME280;39559;48.630;9.162;2023-01-31T04:46:49;98430.25;;;-1.84;100.00
498;BME280;39559;48.630;9.162;2023-01-31T04:49:15;98430.94;;;-1.92;100.00
498;BME280;39559;48.630;9.162;2023-01-31T04:51:40;98431.88;;;-1.89;100.00
498;BME280;39559;48.630;9.162;2023-01-31T04:54:06;98440.06;;;-2.01;100.00
498;BME280;39559;48.630;9.162;2023-01-31T04:56:32;98433.69;;;-2.21;100.00
498;BME280;39559;48.630;9.162;2023-01-31T04:58:57;98433.88;;;-2.12;100.00
498;BME280;39559;48.630;9.162;2023-01-31T05:01:24;98443.25;;;-2.09;100.00
498;BME280;39559;48.630;9.162;2023-01-31T05:06:00;98439.34;;;-2.32;100.00
498;BME280;39559;48.630;9.162;2023-01-31T05:08:25;98440.25;;;-2.29;100.00
498;BME280;39559;48.630;9.162;2023-01-31T05:10:58;98432.03;;;-2.19;100.00
498;BME280;39559;48.630;9.162;2023-01-31T05:13:27;98426.25;;;-2.12;100.00
498;BME280;39559;48.630;9.162;2023-01-31T05:15:54;98433.72;;;-2.20;100.00
498;BME280;39559;48.630;9.162;2023-01-31T05:18:25;98428.88;;;-2.09;100.00
498;BME280;39559;48.630;9.162;2023-01-31T05:20:51;98440.97;;;-1.99;100.00
498;BME280;39559;48.630;9.162;2023-01-31T05:23:17;98443.38;;;-2.05;100.00
498;BME280;39559;48.630;9.162;2023-01-31T05:25:48;98441.44;;;-2.15;100.00
498;BME280;39559;48.630;9.162;2023-01-31T05:30:02;98439.25;;;-2.00;100.00
498;BME280;39559;48.630;9.162;2023-01-31T05:32:29;98436.47;;;-2.10;100.00
498;BME280;39559;48.630;9.162;2023-01-31T05:34:55;98432.44;;;-2.01;100.00
498;BME280;39559;48.630;9.162;2023-01-31T05:37:20;98443.28;;;-1.70;100.00
498;BME280;39559;48.630;9.162;2023-01-31T05:39:46;98450.50;;;-1.90;100.00
498;BME280;39559;48.630;9.162;2023-01-31T05:42:14;98443.22;;;-1.73;100.00
498;BME280;39559;48.630;9.162;2023-01-31T05:44:40;98438.53;;;-1.94;100.00
498;BME280;39559;48.630;9.162;2023-01-31T05:47:05;98442.53;;;-2.05;100.00
498;BME280;39559;48.630;9.162;2023-01-31T05:49:31;98445.84;;;-2.08;100.00
498;BME280;39559;48.630;9.162;2023-01-31T05:54:03;98447.50;;;-2.10;100.00
498;BME280;39559;48.630;9.162;2023-01-31T05:56:29;98442.06;;;-2.25;100.00
498;BME280;39559;48.630;9.162;2023-01-31T05:58:57;98442.84;;;-2.28;100.00
498;BME280;39559;48.630;9.162;2023-01-31T06:01:25;98444.63;;;-2.25;100.00
498;BME280;39559;48.630;9.162;2023-01-31T06:03:52;98442.75;;;-2.33;100.00
498;BME280;39559;48.630;9.162;2023-01-31T06:06:18;98447.88;;;-2.29;100.00
498;BME280;39559;48.630;9.162;2023-01-31T06:08:43;98439.25;;;-2.36;100.00
498;BME280;39559;48.630;9.162;2023-01-31T06:11:10;98453.59;;;-2.40;100.00
498;BME280;39559;48.630;9.162;2023-01-31T06:13:36;98448.28;;;-2.49;100.00
498;BME280;39559;48.630;9.162;2023-01-31T06:18:05;98448.88;;;-2.59;100.00
498;BME280;39559;48.630;9.162;2023-01-31T06:20:31;98448.78;;;-2.62;100.00
498;BME280;39559;48.630;9.162;2023-01-31T06:22:56;98461.50;;;-2.62;100.00
498;BME280;39559;48.630;9.162;2023-01-31T06:25:22;98457.06;;;-2.70;100.00
498;BME280;39559;48.630;9.162;2023-01-31T06:27:47;98460.78;;;-2.57;100.00
498;BME280;39559;48.630;9.162;2023-01-31T06:30:13;98461.06;;;-2.09;100.00
498;BME280;39559;48.630;9.162;2023-01-31T06:32:38;98458.25;;;-1.85;100.00
498;BME280;39559;48.630;9.162;2023-01-31T06:35:04;98452.03;;;-1.59;100.00
498;BME280;39559;48.630;9.162;2023-01-31T06:37:30;98458.94;;;-1.53;100.00
498;BME280;39559;48.630;9.162;2023-01-31T06:42:07;98461.91;;;-1.31;100.00
498;BME280;39559;48.630;9.162;2023-01-31T06:44:33;98461.81;;;-1.38;100.00
498;BME280;39559;48.630;9.162;2023-01-31T06:46:59;98457.59;;;-1.36;100.00
498;BME280;39559;48.630;9.162;2023-01-31T06:49:25;98460.50;;;-1.60;100.00
498;BME280;39559;48.630;9.162;2023-01-31T06:51:50;98464.94;;;-1.51;100.00
498;BME280;39559;48.630;9.162;2023-01-31T06:54:16;98456.78;;;-1.33;100.00
498;BME280;39559;48.630;9.162;2023-01-31T06:56:41;98465.53;;;-1.20;100.00
498;BME280;39559;48.630;9.162;2023-01-31T06:59:07;98463.09;;;-1.16;100.00
498;BME280;39559;48.630;9.162;2023-01-31T07:01:32;98465.75;;;-1.09;100.00
498;BME280;39559;48.630;9.162;2023-01-31T07:06:09;98464.34;;;-0.95;100.00
498;BME280;39559;48.630;9.162;2023-01-31T07:08:35;98456.84;;;-0.86;100.00
498;BME280;39559;48.630;9.162;2023-01-31T07:11:01;98456.00;;;-0.86;100.00
498;BME280;39559;48.630;9.162;2023-01-31T07:13:27;98456.69;;;-0.95;100.00
498;BME280;39559;48.630;9.162;2023-01-31T07:15:54;98442.44;;;-0.85;100.00
498;BME280;39559;48.630;9.162;2023-01-31T07:18:19;98451.03;;;-0.79;100.00
498;BME280;39559;48.630;9.162;2023-01-31T07:20:45;98451.03;;;-0.79;100.00
498;BME280;39559;48.630;9.162;2023-01-31T07:23:10;98447.69;;;-0.76;100.00
498;BME280;39559;48.630;9.162;2023-01-31T07:25:36;98452.97;;;-0.67;100.00
498;BME280;39559;48.630;9.162;2023-01-31T07:30:12;98451.19;;;-0.69;100.00
498;BME280;39559;48.630;9.162;2023-01-31T07:32:37;98444.47;;;-0.66;100.00
498;BME280;39559;48.630;9.162;2023-01-31T07:35:04;98455.50;;;-0.67;100.00
498;BME280;39559;48.630;9.162;2023-01-31T07:37:29;98454.78;;;-0.60;100.00
498;BME280;39559;48.630;9.162;2023-01-31T07:39:55;98461.53;;;-0.63;100.00
498;BME280;39559;48.630;9.162;2023-01-31T07:42:20;98454.81;;;-0.58;100.00
498;BME280;39559;48.630;9.162;2023-01-31T07:44:46;98464.19;;;-0.55;100.00
498;BME280;39559;48.630;9.162;2023-01-31T07:47:11;98464.19;;;-0.55;100.00
498;BME280;39559;48.630;9.162;2023-01-31T07:49:37;98466.75;;;-0.55;100.00
498;BME280;39559;48.630;9.162;2023-01-31T07:54:13;98474.44;;;-0.54;100.00
498;BME280;39559;48.630;9.162;2023-01-31T07:56:39;98461.84;;;-0.45;100.00
498;BME280;39559;48.630;9.162;2023-01-31T07:59:04;98469.59;;;-0.39;100.00
498;BME280;39559;48.630;9.162;2023-01-31T08:01:30;98468.00;;;-0.32;100.00
498;BME280;39559;48.630;9.162;2023-01-31T08:04:15;98458.56;;;-0.37;100.00
498;BME280;39559;48.630;9.162;2023-01-31T08:06:42;98470.47;;;-0.36;100.00
498;BME280;39559;48.630;9.162;2023-01-31T08:09:11;98471.25;;;-0.41;100.00
498;BME280;39559;48.630;9.162;2023-01-31T08:11:36;98473.84;;;-0.39;100.00
498;BME280;39559;48.630;9.162;2023-01-31T08:14:02;98475.63;;;-0.33;100.00
498;BME280;39559;48.630;9.162;2023-01-31T08:18:15;98469.13;;;-0.16;100.00
498;BME280;39559;48.630;9.162;2023-01-31T08:20:41;98472.56;;;-0.14;100.00
498;BME280;39559;48.630;9.162;2023-01-31T08:23:06;98471.81;;;-0.07;100.00
498;BME280;39559;48.630;9.162;2023-01-31T08:25:32;98472.63;;;-0.08;100.00
498;BME280;39559;48.630;9.162;2023-01-31T08:27:58;98471.06;;;0.01;100.00
498;BME280;39559;48.630;9.162;2023-01-31T08:30:23;98461.78;;;0.06;100.00
498;BME280;39559;48.630;9.162;2023-01-31T08:32:49;98473.72;;;0.07;100.00
498;BME280;39559;48.630;9.162;2023-01-31T08:35:15;98473.84;;;0.16;100.00
498;BME280;39559;48.630;9.162;2023-01-31T08:37:40;98482.50;;;0.24;100.00
498;BME280;39559;48.630;9.162;2023-01-31T08:42:17;98471.56;;;0.33;100.00
498;BME280;39559;48.630;9.162;2023-01-31T08:44:43;98466.56;;;0.44;100.00
498;BME280;39559;48.630;9.162;2023-01-31T08:47:08;98468.44;;;0.55;100.00
498;BME280;39559;48.630;9.162;2023-01-31T08:49:34;98461.75;;;0.65;100.00
498;BME280;39559;48.630;9.162;2023-01-31T08:52:01;98463.63;;;0.82;100.00
498;BME280;39559;48.630;9.162;2023-01-31T08:54:26;98463.00;;;0.97;100.00
498;BME280;39559;48.630;9.162;2023-01-31T08:56:52;98454.69;;;1.18;100.00
498;BME280;39559;48.630;9.162;2023-01-31T08:59:18;98456.31;;;1.12;100.00
498;BME280;39559;48.630;9.162;2023-01-31T09:01:43;98450.41;;;1.18;100.00
498;BME280;39559;48.630;9.162;2023-01-31T09:06:20;98437.81;;;1.35;100.00
498;BME280;39559;48.630;9.162;2023-01-31T09:08:46;98438.84;;;1.57;100.00
498;BME280;39559;48.630;9.162;2023-01-31T09:11:13;98440.06;;;2.04;100.00
498;BME280;39559;48.630;9.162;2023-01-31T09:13:44;98445.44;;;2.44;100.00
498;BME280;39559;48.630;9.162;2023-01-31T09:16:11;98441.28;;;2.66;100.00
498;BME280;39559;48.630;9.162;2023-01-31T09:18:38;98445.56;;;2.75;100.00
498;BME280;39559;48.630;9.162;2023-01-31T09:21:05;98445.59;;;2.85;100.00
498;BME280;39559;48.630;9.162;2023-01-31T09:23:32;98462.34;;;2.16;100.00
498;BME280;39559;48.630;9.162;2023-01-31T09:25:58;98464.00;;;2.06;100.00
498;BME280;39559;48.630;9.162;2023-01-31T09:30:20;98460.91;;;2.62;100.00
498;BME280;39559;48.630;9.162;2023-01-31T09:32:45;98450.81;;;3.07;100.00
498;BME280;39559;48.630;9.162;2023-01-31T09:35:12;98447.44;;;3.28;100.00
498;BME280;39559;48.630;9.162;2023-01-31T09:37:37;98432.06;;;4.08;100.00
498;BME280;39559;48.630;9.162;2023-01-31T09:40:04;98445.75;;;3.49;100.00
498;BME280;39559;48.630;9.162;2023-01-31T09:42:34;98442.97;;;2.62;100.00
498;BME280;39559;48.630;9.162;2023-01-31T09:47:35;98442.81;;;2.38;100.00
498;BME280;39559;48.630;9.162;2023-01-31T09:54:30;98428.31;;;2.37;100.00
498;BME280;39559;48.630;9.162;2023-01-31T10:07:58;98424.06;;;2.43;100.00
498;BME280;39559;48.630;9.162;2023-01-31T10:10:43;98434.38;;;2.51;100.00
498;BME280;39559;48.630;9.162;2023-01-31T10:18:28;98444.69;;;2.66;100.00
498;BME280;39559;48.630;9.162;2023-01-31T10:20:58;98442.94;;;2.58;100.00
498;BME280;39559;48.630;9.162;2023-01-31T10:23:34;98438.63;;;2.54;100.00
498;BME280;39559;48.630;9.162;2023-01-31T10:26:06;98442.97;;;2.65;100.00
498;BME280;39559;48.630;9.162;2023-01-31T10:28:46;98452.38;;;2.68;100.00
498;BME280;39559;48.630;9.162;2023-01-31T10:31:25;98458.41;;;2.79;100.00
498;BME280;39559;48.630;9.162;2023-01-31T10:34:02;98453.25;;;2.72;100.00
498;BME280;39559;48.630;9.162;2023-01-31T10:36:51;98443.91;;;2.86;100.00
498;BME280;39559;48.630;9.162;2023-01-31T10:42:37;98424.13;;;2.57;100.00
498;BME280;39559;48.630;9.162;2023-01-31T10:45:18;98425.94;;;2.84;100.00
498;BME280;39559;48.630;9.162;2023-01-31T10:47:49;98413.25;;;3.52;100.00
498;BME280;39559;48.630;9.162;2023-01-31T10:50:28;98417.50;;;4.07;100.00
498;BME280;39559;48.630;9.162;2023-01-31T10:53:14;98419.09;;;4.54;100.00
498;BME280;39559;48.630;9.162;2023-01-31T10:58:29;98414.00;;;4.37;99.07
498;BME280;39559;48.630;9.162;2023-01-31T11:00:55;98407.72;;;5.03;97.54
498;BME280;39559;48.630;9.162;2023-01-31T11:03:21;98406.28;;;4.36;95.25
498;BME280;39559;48.630;9.162;2023-01-31T11:06:27;98414.09;;;4.00;96.44
498;BME280;39559;48.630;9.162;2023-01-31T11:08:58;98416.63;;;4.07;98.63
498;BME280;39559;48.630;9.162;2023-01-31T11:11:26;98404.50;;;4.63;96.62
498;BME280;39559;48.630;9.162;2023-01-31T11:14:01;98398.63;;;4.20;98.47
498;BME280;39559;48.630;9.162;2023-01-31T11:16:33;98402.00;;;4.42;98.09
498;BME280;39559;48.630;9.162;2023-01-31T11:19:14;98402.88;;;4.37;98.28
498;BME280;39559;48.630;9.162;2023-01-31T11:21:48;98394.31;;;4.26;97.62
498;BME280;39559;48.630;9.162;2023-01-31T11:24:22;98395.25;;;3.88;97.93
498;BME280;39559;48.630;9.162;2023-01-31T11:27:13;98392.69;;;3.81;100.00
498;BME280;39559;48.630;9.162;2023-01-31T11:30:38;98398.69;;;3.71;100.00
498;BME280;39559;48.630;9.162;2023-01-31T11:33:05;98384.06;;;4.07;100.00
498;BME280;39559;48.630;9.162;2023-01-31T11:35:32;98372.09;;;4.04;99.11
498;BME280;39559;48.630;9.162;2023-01-31T11:38:01;98366.97;;;3.92;100.00
498;BME280;39559;48.630;9.162;2023-01-31T11:40:32;98368.66;;;4.13;100.00
498;BME280;39559;48.630;9.162;2023-01-31T11:43:01;98363.47;;;4.35;100.00
498;BME280;39559;48.630;9.162;2023-01-31T11:45:30;98363.50;;;4.16;96.65
498;BME280;39559;48.630;9.162;2023-01-31T11:48:08;98355.81;;;4.06;99.31
498;BME280;39559;48.630;9.162;2023-01-31T11:50:42;98348.16;;;3.95;100.00
498;BME280;39559;48.630;9.162;2023-01-31T11:54:32;98330.16;;;3.87;99.86
498;BME280;39559;48.630;9.162;2023-01-31T11:57:00;98333.56;;;3.94;99.20
498;BME280;39559;48.630;9.162;2023-01-31T11:59:28;98335.28;;;3.93;98.69
498;BME280;39559;48.630;9.162;2023-01-31T12:01:57;98330.16;;;3.95;98.69
498;BME280;39559;48.630;9.162;2023-01-31T12:04:32;98318.97;;;4.02;99.61
498;BME280;39559;48.630;9.162;2023-01-31T12:07:05;98337.84;;;3.87;99.51
498;BME280;39559;48.630;9.162;2023-01-31T12:09:42;98332.78;;;3.50;97.62
498;BME280;39559;48.630;9.162;2023-01-31T12:12:29;98339.63;;;3.42;98.38
498;BME280;39559;48.630;9.162;2023-01-31T12:15:00;98341.34;;;3.37;97.36
498;BME280;39559;48.630;9.162;2023-01-31T12:18:43;98345.63;;;3.29;97.28
498;BME280;39559;48.630;9.162;2023-01-31T12:21:15;98333.63;;;3.20;98.19
498;BME280;39559;48.630;9.162;2023-01-31T12:26:29;98330.22;;;3.18;98.01
498;BME280;39559;48.630;9.162;2023-01-31T12:35:03;98326.81;;;3.40;98.64
498;BME280;39559;48.630;9.162;2023-01-31T12:42:49;98305.41;;;3.17;100.00
498;BME280;39559;48.630;9.162;2023-01-31T12:48:24;98278.03;;;3.16;100.00
498;BME280;39559;48.630;9.162;2023-01-31T13:06:44;98264.31;;;2.61;100.00
498;BME280;39559;48.630;9.162;2023-01-31T13:09:19;98267.75;;;2.76;100.00
498;BME280;39559;48.630;9.162;2023-01-31T13:11:55;98265.19;;;2.94;100.00
498;BME280;39559;48.630;9.162;2023-01-31T13:14:24;98267.78;;;2.88;100.00
498;BME280;39559;48.630;9.162;2023-01-31T13:16:54;98252.38;;;2.93;100.00
498;BME280;39559;48.630;9.162;2023-01-31T13:19:31;98236.97;;;3.05;100.00
498;BME280;39559;48.630;9.162;2023-01-31T13:22:01;98241.25;;;3.12;100.00
498;BME280;39559;48.630;9.162;2023-01-31T13:24:36;98236.97;;;3.06;100.00
498;BME280;39559;48.630;9.162;2023-01-31T13:30:49;98245.53;;;2.87;100.00
498;BME280;39559;48.630;9.162;2023-01-31T13:36:16;98235.25;;;2.75;100.00
498;BME280;39559;48.630;9.162;2023-01-31T13:38:44;98236.09;;;2.69;100.00
498;BME280;39559;48.630;9.162;2023-01-31T13:41:36;98238.69;;;2.74;100.00
498;BME280;39559;48.630;9.162;2023-01-31T13:44:04;98234.41;;;2.69;100.00
498;BME280;39559;48.630;9.162;2023-01-31T13:46:43;98247.22;;;2.66;100.00
498;BME280;39559;48.630;9.162;2023-01-31T13:49:21;98238.69;;;2.80;100.00
498;BME280;39559;48.630;9.162;2023-01-31T13:54:43;98227.56;;;2.62;100.00
498;BME280;39559;48.630;9.162;2023-01-31T14:00:40;98240.38;;;2.62;100.00
498;BME280;39559;48.630;9.162;2023-01-31T14:03:07;98230.97;;;2.57;100.00
498;BME280;39559;48.630;9.162;2023-01-31T14:13:45;98225.88;;;2.86;100.00
498;BME280;39559;48.630;9.162;2023-01-31T14:18:37;98257.50;;;2.93;100.00
498;BME280;39559;48.630;9.162;2023-01-31T14:24:03;98247.25;;;2.69;100.00
498;BME280;39559;48.630;9.162;2023-01-31T14:29:23;98223.25;;;2.37;100.00
498;BME280;39559;48.630;9.162;2023-01-31T14:31:51;98218.97;;;2.34;100.00
498;BME280;39559;48.630;9.162;2023-01-31T14:34:21;98207.03;;;2.44;100.00
498;BME280;39559;48.630;9.162;2023-01-31T14:39:49;98212.16;;;2.41;100.00
498;BME280;39559;48.630;9.162;2023-01-31T14:56:53;98201.91;;;2.61;100.00
498;BME280;39559;48.630;9.162;2023-01-31T14:59:26;98187.38;;;2.49;100.00
498;BME280;39559;48.630;9.162;2023-01-31T15:01:55;98171.16;;;2.42;100.00
498;BME280;39559;48.630;9.162;2023-01-31T15:06:37;98194.22;;;2.41;100.00
498;BME280;39559;48.630;9.162;2023-01-31T15:11:50;98182.25;;;2.43;100.00
498;BME280;39559;48.630;9.162;2023-01-31T15:14:34;98183.94;;;2.27;100.00
498;BME280;39559;48.630;9.162;2023-01-31T15:17:06;98185.63;;;2.23;100.00
498;BME280;39559;48.630;9.162;2023-01-31T15:22:38;98173.66;;;2.25;100.00
498;BME280;39559;48.630;9.162;2023-01-31T15:25:20;98182.22;;;2.30;100.00
498;BME280;39559;48.630;9.162;2023-01-31T15:27:46;98186.50;;;2.28;100.00
498;BME280;39559;48.630;9.162;2023-01-31T15:30:38;98197.63;;;2.46;100.00
498;BME280;39559;48.630;9.162;2023-01-31T15:33:24;98201.03;;;2.31;100.00
498;BME280;39559;48.630;9.162;2023-01-31T15:36:03;98219.84;;;2.41;100.00
498;BME280;39559;48.630;9.162;2023-01-31T15:41:15;98227.50;;;2.27;100.00
498;BME280;39559;48.630;9.162;2023-01-31T15:43:41;98236.88;;;2.23;100.00
498;BME280;39559;48.630;9.162;2023-01-31T15:46:20;98224.91;;;2.21;100.00
498;BME280;39559;48.630;9.162;2023-01-31T15:48:47;98224.91;;;2.13;100.00
498;BME280;39559;48.630;9.162;2023-01-31T15:51:13;98224.03;;;2.13;100.00
498;BME280;39559;48.630;9.162;2023-01-31T15:54:38;98213.81;;;2.17;100.00
498;BME280;39559;48.630;9.162;2023-01-31T15:57:09;98215.53;;;2.17;100.00
498;BME280;39559;48.630;9.162;2023-01-31T15:59:43;98220.63;;;2.14;100.00
498;BME280;39559;48.630;9.162;2023-01-31T16:02:18;98223.19;;;2.12;100.00
498;BME280;39559;48.630;9.162;2023-01-31T16:04:45;98219.78;;;2.19;100.00
498;BME280;39559;48.630;9.162;2023-01-31T16:07:20;98222.34;;;2.19;100.00
498;BME280;39559;48.630;9.162;2023-01-31T16:09:51;98231.75;;;2.20;100.00
498;BME280;39559;48.630;9.162;2023-01-31T16:12:17;98235.16;;;2.16;100.00
498;BME280;39559;48.630;9.162;2023-01-31T16:14:45;98242.84;;;2.13;100.00
498;BME280;39559;48.630;9.162;2023-01-31T16:18:40;98249.66;;;2.14;100.00
498;BME280;39559;48.630;9.162;2023-01-31T16:24:13;98242.81;;;2.10;100.00
498;BME280;39559;48.630;9.162;2023-01-31T16:26:47;98245.38;;;2.10;100.00
498;BME280;39559;48.630;9.162;2023-01-31T16:29:16;98238.56;;;2.07;100.00
498;BME280;39559;48.630;9.162;2023-01-31T16:31:46;98252.19;;;2.03;100.00
498;BME280;39559;48.630;9.162;2023-01-31T16:34:32;98230.00;;;2.04;100.00
498;BME280;39559;48.630;9.162;2023-01-31T16:37:03;98236.84;;;2.06;100.00
498;BME280;39559;48.630;9.162;2023-01-31T16:42:39;98247.06;;;2.05;100.00
498;BME280;39559;48.630;9.162;2023-01-31T16:45:28;98247.06;;;2.03;100.00
498;BME280;39559;48.630;9.162;2023-01-31T16:47:54;98242.78;;;2.05;100.00
498;BME280;39559;48.630;9.162;2023-01-31T16:53:06;98244.50;;;2.02;100.00
498;BME280;39559;48.630;9.162;2023-01-31T16:55:38;98247.06;;;2.03;100.00